地図

経路データ

SID SEASON NUMBER BASIN SUBBASIN NAME ISO_TIME NATURE LAT LON WMO_WIND WMO_PRES WMO_AGENCY TRACK_TYPE DIST2LAND LANDFALL IFLAG USA_AGENCY USA_ATCF_ID USA_LAT USA_LON USA_RECORD USA_STATUS USA_WIND USA_PRES USA_SSHS USA_R34_NE USA_R34_SE USA_R34_SW USA_R34_NW USA_R50_NE USA_R50_SE USA_R50_SW USA_R50_NW USA_R64_NE USA_R64_SE USA_R64_SW USA_R64_NW USA_POCI USA_ROCI USA_RMW USA_EYE TOKYO_LAT TOKYO_LON TOKYO_GRADE TOKYO_WIND TOKYO_PRES TOKYO_R50_DIR TOKYO_R50_LONG TOKYO_R50_SHORT TOKYO_R30_DIR TOKYO_R30_LONG TOKYO_R30_SHORT TOKYO_LAND CMA_LAT CMA_LON CMA_CAT CMA_WIND CMA_PRES HKO_LAT HKO_LON HKO_CAT HKO_WIND HKO_PRES NEWDELHI_LAT NEWDELHI_LON NEWDELHI_GRADE NEWDELHI_WIND NEWDELHI_PRES NEWDELHI_CI NEWDELHI_DP NEWDELHI_POCI REUNION_LAT REUNION_LON REUNION_TYPE REUNION_WIND REUNION_PRES REUNION_TNUM REUNION_CI REUNION_RMW REUNION_R34_NE REUNION_R34_SE REUNION_R34_SW REUNION_R34_NW REUNION_R50_NE REUNION_R50_SE REUNION_R50_SW REUNION_R50_NW REUNION_R64_NE REUNION_R64_SE REUNION_R64_SW REUNION_R64_NW BOM_LAT BOM_LON BOM_TYPE BOM_WIND BOM_PRES BOM_TNUM BOM_CI BOM_RMW BOM_R34_NE BOM_R34_SE BOM_R34_SW BOM_R34_NW BOM_R50_NE BOM_R50_SE BOM_R50_SW BOM_R50_NW BOM_R64_NE BOM_R64_SE BOM_R64_SW BOM_R64_NW BOM_ROCI BOM_POCI BOM_EYE BOM_POS_METHOD BOM_PRES_METHOD NADI_LAT NADI_LON NADI_CAT NADI_WIND NADI_PRES WELLINGTON_LAT WELLINGTON_LON WELLINGTON_WIND WELLINGTON_PRES DS824_LAT DS824_LON DS824_STAGE DS824_WIND DS824_PRES TD9636_LAT TD9636_LON TD9636_STAGE TD9636_WIND TD9636_PRES TD9635_LAT TD9635_LON TD9635_WIND TD9635_PRES TD9635_ROCI NEUMANN_LAT NEUMANN_LON NEUMANN_CLASS NEUMANN_WIND NEUMANN_PRES MLC_LAT MLC_LON MLC_CLASS MLC_WIND MLC_PRES USA_GUST BOM_GUST BOM_GUST_PER REUNION_GUST REUNION_GUST_PER USA_SEAHGT USA_SEARAD_NE USA_SEARAD_SE USA_SEARAD_SW USA_SEARAD_NW STORM_SPEED STORM_DIR
2017292N13151 2017 89 WP MM SAOLA 2017-10-19 06:00:00 DS 12.7000 150.800 main 1700 1678 O_____________ jtwc_wp WP272017 12.7000 150.800 LO 20 1007 -3 1006 250 60 10 122
2017292N13151 2017 89 WP MM SAOLA 2017-10-19 09:00:00 DS 12.4277 151.243 main 1678 1665 P_____________ WP272017 12.4277 151.243 LO 22 1005 -3 1006 250 60 9 123
2017292N13151 2017 89 WP MM SAOLA 2017-10-19 12:00:00 DS 12.2000 151.600 main 1668 1660 O_____________ jtwc_wp WP272017 12.2000 151.600 LO 25 1004 -3 1006 250 60 7 125
2017292N13151 2017 89 WP MM SAOLA 2017-10-19 15:00:00 DS 12.0424 151.810 main 1650 1639 P_____________ WP272017 12.0424 151.810 LO 25 1004 -3 1006 250 60 4 136
2017292N13151 2017 89 WP MM SAOLA 2017-10-19 18:00:00 TS 11.9000 151.900 main 1639 1617 O_____________ jtwc_wp WP272017 11.9000 151.900 TD 25 1004 -1 1006 250 60 4 161
2017292N13151 2017 89 WP MM SAOLA 2017-10-19 21:00:00 TS 11.6625 151.945 main 1617 1594 P_____________ WP272017 11.6625 151.945 TD 27 1002 -1 1006 250 60 4 0
2017292N13151 2017 89 WP MM SAOLA 2017-10-20 00:00:00 TS 11.5000 151.900 main 1594 1594 O_____________ jtwc_wp WP272017 11.5000 151.900 TD 30 1000 -1 1006 250 60 2 227
2017292N13151 2017 89 WP MM SAOLA 2017-10-20 03:00:00 TS 11.5250 151.795 main 1594 1594 P_____________ WP272017 11.5250 151.795 TD 30 1000 -1 1006 250 60 4 304
2017292N13151 2017 89 WP MM SAOLA 2017-10-20 06:00:00 TS 11.7000 151.600 main 1614 1614 O_____________ jtwc_wp WP272017 11.7000 151.600 TD 30 1000 -1 1006 250 60 7 317
2017292N13151 2017 89 WP MM SAOLA 2017-10-20 09:00:00 TS 12.0075 151.330 main 1637 1637 P_____________ WP272017 12.0075 151.330 TD 30 1000 -1 1006 250 60 8 316
2017292N13151 2017 89 WP MM SAOLA 2017-10-20 12:00:00 TS 12.3000 151.000 main 1661 1659 O_____________ jtwc_wp WP272017 12.3000 151.000 TD 30 1000 -1 1006 250 60 8 302
2017292N13151 2017 89 WP MM SAOLA 2017-10-20 15:00:00 TS 12.4175 150.657 main 1665 1655 P_____________ WP272017 12.4175 150.657 TD 30 1000 -1 1006 250 60 7 278
2017292N13151 2017 89 WP MM SAOLA 2017-10-20 18:00:00 TS 12.4000 150.300 main 1655 1638 O_____________ jtwc_wp WP272017 12.4000 150.300 TD 30 1000 -1 1006 250 60 7 257
2017292N13151 2017 89 WP MM SAOLA 2017-10-20 21:00:00 TS 12.2649 149.957 main 1638 1609 P_____________ WP272017 12.2649 149.957 TD 30 1000 -1 1006 250 60 7 246
2017292N13151 2017 89 WP MM SAOLA 2017-10-21 00:00:00 TS 12.1000 149.600 main 1609 1603 O_____________ jtwc_wp WP272017 12.1000 149.600 TD 30 1000 -1 1006 250 60 8 254
2017292N13151 2017 89 WP MM SAOLA 2017-10-21 03:00:00 TS 12.0501 149.185 main 1603 1587 P_____________ WP272017 12.0501 149.185 TD 30 1000 -1 1006 250 60 8 263
2017292N13151 2017 89 WP MM SAOLA 2017-10-21 06:00:00 TS 12.0000 148.800 main 1587 1573 O_____________ jtwc_wp WP272017 12.0000 148.800 TD 30 1000 -1 1006 250 60 7 255
2017292N13151 2017 89 WP MM SAOLA 2017-10-21 09:00:00 TS 11.8799 148.535 main 1573 1549 P_____________ WP272017 11.8799 148.535 TD 30 1000 -1 1006 250 60 6 238
2017292N13151 2017 89 WP MM SAOLA 2017-10-21 12:00:00 TS 11.7000 148.300 main 1549 1525 O_____________ jtwc_wp WP272017 11.7000 148.300 TD 30 1000 -1 1006 250 60 7 235
2017292N13151 2017 89 WP MM SAOLA 2017-10-21 15:00:00 TS 11.5026 147.977 main 1525 1490 P_____________ WP272017 11.5026 147.977 TD 30 1000 -1 1006 250 60 8 230
2017292N13151 2017 89 WP MM SAOLA 2017-10-21 18:00:00 TS 11.2000 147.700 main 1490 1445 O_____________ jtwc_wp WP272017 11.2000 147.700 TD 30 1000 -1 1006 250 60 9 212
2017292N13151 2017 89 WP MM SAOLA 2017-10-21 21:00:00 TS 10.7449 147.495 main 1434 1378 P_____________ WP272017 10.7449 147.495 TD 32 998 -1 1006 250 60 10 191
2017292N13151 2017 89 WP MM SAOLA 2017-10-22 00:00:00 TS 10.2000 147.500 main 1378 1311 O_____________ jtwc_wp WP272017 10.2000 147.500 TS 35 996 0 85 90 100 1006 250 60 12 162
2017292N13151 2017 89 WP MM SAOLA 2017-10-22 03:00:00 TS 9.58276 147.886 main 1312 1258 P_____________ WP272017 9.58276 147.886 TS 32 998 -1 1006 250 60 13 145
2017292N13151 2017 89 WP MM SAOLA 2017-10-22 06:00:00 TS 9.11667 148.283 1004 tokyo main 1258 1247 OOO___________ jtwc_wp WP272017 9.10000 148.300 TD 30 1000 -1 1006 250 60 9.10000 148.300 2 1004 0 0 0 9.20000 148.200 1 25 1002 7 143
2017292N13151 2017 89 WP MM SAOLA 2017-10-22 09:00:00 TS 9.00808 148.332 main 1247 1247 PPP___________ WP272017 8.95991 148.390 TD 27 1002 -1 1006 250 60 9.02999 148.330 2 1005 0 0 9.08250 148.218 1 25 1002 1 191
2017292N13151 2017 89 WP MM SAOLA 2017-10-22 12:00:00 TS 9.00000 148.270 1006 tokyo main 1247 1246 OOO___________ jtwc_wp WP272017 9.00000 148.300 TD 25 1004 -1 1006 250 60 9.00000 148.300 2 1006 0 0 0 9.00000 148.200 1 25 1002 2 273
2017292N13151 2017 89 WP MM SAOLA 2017-10-22 15:00:00 TS 9.01834 148.142 main 1246 1245 PPP___________ WP272017 9.04252 148.130 TD 25 1004 -1 1006 250 60 9.03501 148.173 2 1005 0 0 8.97750 148.122 1 25 1002 3 283
2017292N13151 2017 89 WP MM SAOLA 2017-10-22 18:00:00 TS 9.06667 147.967 1004 tokyo main 1256 1255 OOO___________ jtwc_wp WP272017 9.10000 147.900 TD 25 1004 -1 1006 250 60 9.10000 148.000 2 1004 0 0 0 9.00000 148.000 1 25 1002 3 283
2017292N13151 2017 89 WP MM SAOLA 2017-10-22 21:00:00 TS 9.09749 147.807 main 1255 1255 PPP___________ WP272017 9.09996 147.715 TD 25 1004 -1 1006 250 60 9.14999 147.850 2 1005 0 0 9.04250 147.858 1 25 1002 4 279
2017292N13151 2017 89 WP MM SAOLA 2017-10-23 00:00:00 MX 9.12308 147.608 1006 tokyo main 1255 1255 OOOO__________ jtwc_wp WP272017 9.10000 147.500 LO 25 1004 -3 1006 250 60 9.20000 147.700 2 1006 0 0 0 9.10000 147.700 1 25 1002 9.00000 147.300 TD 25 1000 4 278
2017292N13151 2017 89 WP MM SAOLA 2017-10-23 03:00:00 MX 9.15102 147.434 main 1266 1266 PPPP__________ WP272017 9.11992 147.245 LO 25 1004 -3 1006 250 60 9.24248 147.557 2 1005 0 0 9.14246 147.572 1 25 1002 9.04741 147.288 TD 25 1000 4 282
2017292N13151 2017 89 WP MM SAOLA 2017-10-23 06:00:00 MX 9.20667 147.207 1004 tokyo main 1266 1266 OOOO__________ jtwc_wp WP272017 9.20000 146.900 LO 25 1004 -3 1006 250 60 9.30000 147.400 2 1004 0 0 0 9.20000 147.400 1 25 1002 9.10000 147.100 TD 25 1000 6 283
2017292N13151 2017 89 WP MM SAOLA 2017-10-23 09:00:00 MX 9.27243 146.878 main 1277 1277 PPPP__________ WP272017 9.34007 146.422 LO 25 1004 -3 1006 250 60 9.35469 147.297 2 1005 0 0 9.22487 147.167 1 25 1002 9.17010 146.625 TD 25 1000 8 288
2017292N13151 2017 89 WP MM SAOLA 2017-10-23 12:00:00 MX 9.45000 146.425 1006 tokyo main 1300 1288 OOOO__________ jtwc_wp WP272017 9.60000 145.900 LO 25 1004 -3 1006 250 60 9.50000 147.000 2 1006 0 0 0 9.40000 146.800 1 25 1002 9.30000 146.000 TD 25 1000 11 296
2017292N13151 2017 89 WP MM SAOLA 2017-10-23 15:00:00 MX 9.75432 145.870 main 1335 1335 PPPP__________ WP272017 9.98206 145.509 LO 25 1004 -3 1006 250 60 9.75290 146.275 2 1004 0 0 9.86738 146.282 1 27 1001 9.41494 145.414 TD 25 1000 15 304
2017292N13151 2017 89 WP MM SAOLA 2017-10-23 18:00:00 MX 10.2500 145.200 1002 tokyo main 1398 1398 OOOO__________ jtwc_wp WP272017 10.5000 145.000 LO 25 1004 -3 1006 250 60 10.2000 145.400 2 1002 0 0 0 10.5000 145.600 1 29 1000 9.80000 144.800 TD 25 1000 19 312
2017292N13151 2017 89 WP MM SAOLA 2017-10-23 21:00:00 MX 10.9823 144.474 main 1486 1486 PPPP__________ WP272017 11.1502 144.168 LO 25 1004 -3 1006 250 60 10.8894 144.737 2 1003 0 0 11.1274 144.810 1 29 1000 10.7623 144.181 TD 25 1000 22 315
2017292N13151 2017 89 WP MM SAOLA 2017-10-24 00:00:00 MX 11.7750 143.650 1004 tokyo main 1590 1592 OOOO__________ jtwc_wp WP272017 11.8000 143.200 LO 25 1004 -3 1006 250 60 11.7000 144.000 2 1004 0 0 0 11.8000 143.900 1 29 1000 11.8000 143.500 TD 25 1000 22 311
2017292N13151 2017 89 WP MM SAOLA 2017-10-24 03:00:00 MX 12.4269 142.778 main 1648 1648 PPPP__________ WP272017 12.3239 142.367 LO 22 1005 -3 1006 250 60 12.4646 143.040 2 1003 0 0 12.5371 142.945 1 31 999 12.3820 142.759 TD 27 999 22 303
2017292N13151 2017 89 WP MM SAOLA 2017-10-24 06:00:00 MX 12.9750 141.775 1002 tokyo main 1677 1631 OOOO__________ jtwc_wp WP272017 12.7000 141.400 LO 20 1007 -3 1006 250 60 13.2000 141.900 2 1002 0 0 0 13.2000 141.900 2 34 998 12.8000 141.900 TD 30 998 24 296
2017292N13151 2017 89 WP MM SAOLA 2017-10-24 09:00:00 MX 13.4646 140.580 main 1633 1510 PPPP__________ WP272017 12.8738 140.034 LO 20 1007 -3 1006 250 60 13.9408 140.571 2 1001 0 0 13.7343 140.803 2 34 998 13.3097 140.910 TD 32 996 25 289
2017292N13151 2017 89 WP MM SAOLA 2017-10-24 12:00:00 MX 13.8000 139.350 35 1000 tokyo main 1510 1396 OOOO__________ jtwc_wp WP272017 13.0000 138.700 LO 20 1007 -3 1006 250 60 14.5000 139.300 3 35 1000 0 9 150 150 0 14.0000 139.600 2 34 998 13.7000 139.800 TS 35 994 24 281
2017292N13151 2017 89 WP MM SAOLA 2017-10-24 15:00:00 MX 13.9063 138.203 main 1385 1293 PPPP__________ WP272017 13.2540 137.787 LO 22 1005 -3 1006 250 60 14.7243 138.329 3 35 1000 0 9 180 180 13.8088 138.158 2 34 998 13.8382 138.539 TS 35 994 20 275
2017292N13151 2017 89 WP MM SAOLA 2017-10-24 18:00:00 TS 13.9750 137.250 35 1000 tokyo main 1293 1222 OOOO__________ jtwc_wp WP272017 13.6000 137.100 TD 25 1004 -1 1006 250 60 14.8000 137.600 3 35 1000 0 9 210 210 0 13.6000 136.900 2 34 998 13.9000 137.400 TS 35 994 16 281
2017292N13151 2017 89 WP MM SAOLA 2017-10-24 21:00:00 TS 14.2094 136.570 main 1222 1175 PPPP__________ WP272017 14.0349 136.425 TD 30 1000 -1 1006 250 60 14.9270 137.040 3 37 999 0 9 210 210 13.8289 136.186 2 36 996 14.0467 136.630 TS 37 992 13 297
2017292N13151 2017 89 WP MM SAOLA 2017-10-25 00:00:00 TS 14.5500 136.100 40 998 tokyo main 1178 1143 OOOO__________ jtwc_wp WP272017 14.5000 135.900 TS 35 996 0 135 140 135 95 1007 250 60 15.1000 136.600 3 40 998 0 9 210 210 0 14.3000 135.800 2 38 995 14.3000 136.100 TS 40 990 11 312
2017292N13151 2017 89 WP MM SAOLA 2017-10-25 03:00:00 TS 14.9441 135.729 main 1143 1127 PPPP__________ WP272017 14.8771 135.577 TS 37 994 0 167 155 135 97 1007 250 57 15.3473 136.157 3 40 998 0 9 225 210 14.8697 135.527 2 38 995 14.6822 135.655 TS 40 990 11 322
2017292N13151 2017 89 WP MM SAOLA 2017-10-25 06:00:00 TS 15.4250 135.400 40 998 tokyo main 1127 1109 OOOO__________ jtwc_wp WP272017 15.3000 135.300 TS 40 993 0 200 170 135 100 1008 250 55 15.7000 135.700 3 40 998 0 8 240 210 0 15.5000 135.300 2 38 995 15.2000 135.300 TS 40 990 13 327
2017292N13151 2017 89 WP MM SAOLA 2017-10-25 09:00:00 TS 16.0261 134.989 main 1109 1092 PPPP__________ WP272017 15.9075 134.873 TS 42 991 0 200 170 140 97 1008 247 55 16.2149 135.173 3 40 998 0 8 240 210 16.1024 134.938 2 38 995 15.8797 134.973 TS 42 987 14 324
2017292N13151 2017 89 WP MM SAOLA 2017-10-25 12:00:00 TS 16.5750 134.525 40 998 tokyo main 1087 1055 OOOO__________ jtwc_wp WP272017 16.5000 134.400 TS 45 989 0 200 170 145 95 1008 245 55 16.7000 134.600 3 40 998 0 8 240 210 0 16.6000 134.500 2 38 995 16.5000 134.600 TS 45 985 13 312
2017292N13151 2017 89 WP MM SAOLA 2017-10-25 15:00:00 TS 16.8769 133.998 main 1055 1020 PPPP__________ WP272017 16.8949 133.942 TS 45 989 0 145 160 160 127 1007 245 47 16.9376 133.977 3 40 997 0 8 240 210 16.8875 134.007 2 41 992 16.7877 134.064 TS 45 985 11 298
2017292N13151 2017 89 WP MM SAOLA 2017-10-25 18:00:00 TS 17.1000 133.475 40 996 tokyo main 1020 994 OOOO__________ jtwc_wp WP272017 17.2000 133.500 TS 45 989 0 90 150 175 160 1006 245 40 17.1000 133.400 3 40 996 0 8 240 210 0 17.1000 133.500 2 44 990 17.0000 133.500 TS 45 985 11 299
2017292N13151 2017 89 WP MM SAOLA 2017-10-25 21:00:00 TS 17.3880 133.014 main 994 975 PPPP__________ WP272017 17.4774 133.085 TS 45 989 0 90 145 162 125 1006 255 40 17.3198 132.947 3 42 994 0 8 240 210 17.3700 133.012 2 44 990 17.3849 133.013 TS 45 985 10 308
2017292N13151 2017 89 WP MM SAOLA 2017-10-26 00:00:00 TS 17.7250 132.625 45 992 tokyo main 975 970 OOOO__________ jtwc_wp WP272017 17.8000 132.700 TS 45 989 0 90 140 150 90 1006 265 40 17.6000 132.600 3 45 992 0 8 240 210 0 17.7000 132.600 2 44 990 17.8000 132.600 TS 45 985 10 319
2017292N13151 2017 89 WP MM SAOLA 2017-10-26 03:00:00 TS 18.1235 132.337 main 966 964 PPPP__________ WP272017 18.2849 132.343 TS 45 989 0 110 130 130 92 1006 277 40 17.9472 132.357 3 45 992 0 8 240 210 18.1197 132.350 2 44 990 18.1422 132.299 TS 45 985 10 327
2017292N13151 2017 89 WP MM SAOLA 2017-10-26 06:00:00 TS 18.5750 132.050 45 992 tokyo main 975 961 OOOO__________ jtwc_wp WP272017 18.8000 132.000 TS 45 989 0 130 120 110 95 1007 290 40 18.4000 132.100 3 45 992 0 8 240 210 0 18.6000 132.100 2 44 990 18.5000 132.000 TS 45 985 12 325
2017292N13151 2017 89 WP MM SAOLA 2017-10-26 09:00:00 TS 19.0626 131.638 main 963 943 PPPP__________ WP272017 19.2149 131.657 TS 45 989 0 122 102 90 97 1007 292 40 18.9927 131.665 3 45 992 0 8 240 210 19.1076 131.673 2 44 990 18.9351 131.558 TS 45 985 13 321
2017292N13151 2017 89 WP MM SAOLA 2017-10-26 12:00:00 TS 19.5500 131.200 45 992 tokyo main 945 908 OOOO__________ jtwc_wp WP272017 19.6000 131.300 TS 45 989 0 115 85 70 100 1007 295 40 19.6000 131.200 3 45 992 0 8 240 210 0 19.6000 131.200 2 44 990 19.4000 131.100 TS 45 985 12 319
2017292N13151 2017 89 WP MM SAOLA 2017-10-26 15:00:00 TS 19.9730 130.812 main 910 886 PPPP__________ WP272017 19.9850 130.907 TS 45 989 0 125 95 77 112 1007 295 40 20.0798 130.835 3 45 992 0 8 240 210 19.9924 130.777 2 44 990 19.8349 130.727 TS 45 985 11 320
2017292N13151 2017 89 WP MM SAOLA 2017-10-26 18:00:00 TS 20.4000 130.450 45 992 tokyo main 888 863 OOOO__________ jtwc_wp WP272017 20.4000 130.500 TS 45 989 0 135 105 85 125 1007 295 40 20.5000 130.500 3 45 992 0 8 240 210 0 20.4000 130.400 2 44 990 20.3000 130.400 TS 45 985 11 325
2017292N13151 2017 89 WP MM SAOLA 2017-10-26 21:00:00 TS 20.8867 130.118 main 863 848 PPPP__________ WP272017 20.8850 130.092 TS 45 989 0 142 97 87 132 1006 287 37 20.8848 130.164 3 47 991 0 8 240 210 20.9273 130.100 2 46 987 20.8498 130.115 TS 45 985 12 328
2017292N13151 2017 89 WP MM SAOLA 2017-10-27 00:00:00 TS 21.4000 129.775 50 990 tokyo main 852 819 OOOO__________ jtwc_wp WP272017 21.4000 129.700 TS 45 989 0 150 90 90 140 1005 280 35 21.3000 129.800 4 50 990 0 8 240 210 0 21.5000 129.800 3 48 985 21.4000 129.800 TS 45 985 13 325
2017292N13151 2017 89 WP MM SAOLA 2017-10-27 03:00:00 TS 21.9107 129.357 main 819 760 PPPP__________ WP272017 21.9149 129.342 TS 45 989 0 145 100 95 135 1006 270 35 21.8277 129.328 4 50 990 0 8 240 210 22.0501 129.407 3 48 985 21.8502 129.350 TS 47 983 13 323
2017292N13151 2017 89 WP MM SAOLA 2017-10-27 06:00:00 TS 22.4250 128.950 50 990 tokyo main 760 704 OOOO__________ jtwc_wp WP272017 22.4000 129.000 TS 45 989 0 140 110 100 130 1007 260 35 22.4000 128.900 4 50 990 0 8 240 210 0 22.6000 129.000 3 48 985 22.3000 128.900 STS 50 982 13 326
2017292N13151 2017 89 WP MM SAOLA 2017-10-27 09:00:00 TS 22.9578 128.606 main 701 671 PPPP__________ WP272017 22.7851 128.620 TS 47 987 0 152 160 102 130 1007 260 32 23.0009 128.666 4 52 987 0 8 240 210 23.1951 128.598 3 51 983 22.8499 128.540 STS 52 980 12 332
2017292N13151 2017 89 WP MM SAOLA 2017-10-27 12:00:00 TS 23.4500 128.350 55 985 tokyo main 659 641 OOOO__________ jtwc_wp WP272017 23.2000 128.300 TS 50 985 0 165 210 105 130 90 80 30 55 1007 260 30 23.5000 128.500 4 55 985 9 40 40 8 240 210 0 23.7000 128.300 3 54 982 23.4000 128.300 STS 55 978 10 337
2017292N13151 2017 89 WP MM SAOLA 2017-10-27 15:00:00 TS 23.8330 128.205 55 985 tokyo main 641 632 POPP__________ WP272017 23.7699 128.097 TS 52 983 0 165 190 152 152 90 85 70 75 1008 275 30 23.8000 128.300 4 55 985 9 40 40 8 240 210 0 23.9273 128.212 3 54 982 23.8349 128.212 STS 55 978 8 349
2017292N13151 2017 89 WP MM SAOLA 2017-10-27 18:00:00 TS 24.2750 128.175 60 975 tokyo main 630 614 OOOO__________ jtwc_wp WP272017 24.4000 128.000 TS 55 982 0 165 170 200 175 90 90 110 95 1009 290 30 24.2000 128.300 4 60 975 9 80 80 8 300 210 0 24.2000 128.200 3 54 982 24.3000 128.200 STS 55 978 11 353
2017292N13151 2017 89 WP MM SAOLA 2017-10-27 21:00:00 TS 24.9287 128.058 60 975 tokyo main 614 604 POPP__________ WP272017 24.9774 127.948 TS 57 980 0 167 165 167 165 90 92 92 90 1009 300 30 25.0000 128.100 4 60 975 9 80 80 8 300 210 0 24.8250 128.063 3 56 981 24.9125 128.120 STS 57 976 13 354
2017292N13151 2017 89 WP MM SAOLA 2017-10-28 00:00:00 TS 25.6000 128.025 60 975 tokyo main 606 582 OOOO__________ jtwc_wp WP272017 25.6000 128.000 TS 60 978 0 170 160 135 155 90 95 75 85 1009 310 30 25.6000 128.000 4 60 975 9 80 80 8 300 210 0 25.6000 128.000 3 58 980 25.6000 128.100 STS 60 975 14 4
2017292N13151 2017 89 WP MM SAOLA 2017-10-28 03:00:00 TS 26.3192 128.155 60 975 tokyo main 578 548 POPP__________ WP272017 26.3348 128.126 TS 62 976 0 170 165 137 157 92 97 77 90 1008 295 27 26.3000 128.200 4 60 975 9 80 80 8 300 210 0 26.3573 128.118 3 61 977 26.2848 128.176 STS 62 972 15 9
2017292N13151 2017 89 WP MM SAOLA 2017-10-28 04:00:00 TS 26.5803 128.206 60 975 tokyo main 548 499 POPP__________ WP272017 26.5914 128.198 TS 63 975 0 170 166 138 158 93 98 78 91 1008 289 26 26.6000 128.200 4 60 975 9 80 80 8 300 210 1 26.6102 128.195 3 62 976 26.5198 128.231 STS 63 971 16 16
2017292N13151 2017 89 WP MM SAOLA 2017-10-28 06:00:00 TS 27.0750 128.400 60 975 tokyo main 489 401 OOOO__________ jtwc_wp WP272017 27.1000 128.400 TY 65 975 1 170 170 140 160 95 100 80 95 40 45 30 35 1008 280 25 27.1000 128.400 4 60 975 9 80 80 8 300 210 0 27.1000 128.400 4 64 975 27.0000 128.400 T 65 970 16 23
2017292N13151 2017 89 WP MM SAOLA 2017-10-28 09:00:00 TS 27.7999 128.777 60 975 tokyo main 401 309 POPP__________ WP272017 27.8075 128.840 TY 65 974 1 170 170 145 165 105 107 80 87 42 45 32 37 1008 280 25 27.9000 128.700 4 60 975 9 80 80 8 300 210 0 27.7425 128.798 4 64 975 27.7498 128.768 T 65 970 17 30
2017292N13151 2017 89 WP MM SAOLA 2017-10-28 12:00:00 TS 28.5250 129.350 60 975 tokyo main 309 215 OOOO__________ jtwc_wp WP272017 28.5000 129.400 TY 65 974 1 170 170 150 170 115 115 80 80 45 45 35 40 1008 280 25 28.7000 129.400 4 60 975 9 80 80 8 300 210 0 28.4000 129.300 4 64 975 28.5000 129.300 T 65 970 17 35
2017292N13151 2017 89 WP MM SAOLA 2017-10-28 15:00:00 TS 29.2027 129.889 60 975 tokyo main 215 124 POPP__________ WP272017 29.1911 129.912 TY 62 976 0 175 180 152 160 120 112 82 80 1008 285 22 29.2000 130.000 4 60 975 9 80 80 8 300 210 0 29.2056 129.732 4 64 975 29.2142 129.911 T 62 972 17 36
2017292N13151 2017 89 WP MM SAOLA 2017-10-28 18:00:00 TS 29.9250 130.525 60 975 tokyo main 124 77 OOOO__________ jtwc_wp WP272017 29.9000 130.600 TS 60 978 0 180 190 155 150 125 110 85 80 1008 290 20 30 29.9000 130.400 4 60 975 9 80 80 8 300 210 0 30.0000 130.400 4 64 975 29.9000 130.700 STS 60 975 20 45
2017292N13151 2017 89 WP MM SAOLA 2017-10-28 21:00:00 TS 30.6374 131.548 60 975 tokyo main 86 76 POPP__________ WP272017 30.6477 131.530 TS 57 980 0 200 190 165 147 117 105 82 80 1008 285 20 30.7000 131.500 4 60 975 9 80 80 8 300 210 0 30.6383 131.530 4 61 977 30.5634 131.632 STS 60 975 24 56
2017292N13151 2017 89 WP MM SAOLA 2017-10-29 00:00:00 TS 31.2500 132.850 60 975 tokyo main 142 139 OOOO__________ jtwc_wp WP272017 31.4000 132.800 TS 55 982 0 220 190 175 145 110 100 80 80 1008 280 20 31.2000 132.900 4 60 975 9 80 80 8 300 210 0 31.2000 132.900 3 58 980 31.2000 132.800 STS 60 975 25 63
2017292N13151 2017 89 WP MM SAOLA 2017-10-29 03:00:00 TS 31.7434 134.134 60 975 tokyo main 152 111 POPP__________ WP272017 32.0750 134.376 TS 55 982 0 215 190 177 142 102 92 80 77 1007 252 22 31.5000 133.900 4 60 975 9 80 80 8 270 210 0 31.6843 134.116 3 58 980 31.7142 134.145 STS 57 976 28 65
2017292N13151 2017 89 WP MM SAOLA 2017-10-29 06:00:00 MX 32.4750 135.875 60 975 tokyo main 100 90 OOOO__________ jtwc_wp WP272017 32.8000 136.300 EX 55 982 -4 210 190 180 140 95 85 80 75 1006 225 25 32.4000 135.800 4 60 975 3 80 60 9 240 240 0 32.3000 135.600 3 58 980 32.4000 135.800 STS 55 978 37 63
2017292N13151 2017 89 WP MM SAOLA 2017-10-29 09:00:00 MX 33.4188 137.987 60 975 tokyo main 135 52 POPP__________ WP272017 33.6674 138.509 EX 55 982 -4 205 187 180 135 95 85 77 67 1005 205 25 33.3000 138.000 4 60 975 2 90 50 3 270 210 0 33.2202 137.617 3 53 985 33.4875 137.822 STS 50 981 44 61
2017292N13151 2017 89 WP MM SAOLA 2017-10-29 12:00:00 ET 34.6250 140.525 988 tokyo main 63 OOOO__________ jtwc_wp WP272017 34.6000 140.900 EX 55 982 -4 200 185 180 130 95 85 75 60 1005 185 25 34.8000 141.100 6 988 0 0 0 34.3000 140.000 9 48 990 34.8000 140.100 TS 45 985 48 60

デジタル台風データ・検索

IBTrACS Databaseについて

本データベースは、米国NOAAが公開する1842年以降の世界の熱帯低気圧のベストトラックデータアーカイブInternational Best Track Archive for Climate Stewardship (IBTrACS)を、ウェブで閲覧しやすい形式に変換したものです。

最終更新日:2021-11-26